createdAt,value
2022-09-30T00:00:23.328Z,23.8
2022-09-30T00:05:23.307Z,23.8
2022-09-30T00:10:23.586Z,23.8
2022-09-30T00:15:24.214Z,23.7
2022-09-30T00:20:24.838Z,23.7
2022-09-30T00:25:24.619Z,23.6
2022-09-30T00:30:25.117Z,23.7
2022-09-30T00:35:24.437Z,23.6
2022-09-30T00:40:26.065Z,23.6
2022-09-30T00:45:26.365Z,23.6
2022-09-30T00:50:36.511Z,23.6
2022-09-30T00:55:32.022Z,23.6
2022-09-30T01:00:26.740Z,23.6
2022-09-30T01:05:26.293Z,23.6
2022-09-30T01:10:26.867Z,23.6
2022-09-30T01:15:37.608Z,23.6
2022-09-30T01:20:46.915Z,23.6
2022-09-30T01:25:52.789Z,23.6
2022-09-30T01:30:47.466Z,23.6
2022-09-30T01:35:41.460Z,23.6
2022-09-30T01:40:37.289Z,23.5
2022-09-30T01:45:34.286Z,23.5
2022-09-30T01:50:38.002Z,23.5
2022-09-30T01:55:30.803Z,23.5
2022-09-30T02:00:30.393Z,23.6
2022-09-30T02:05:36.115Z,23.5
2022-09-30T02:10:32.590Z,23.5
2022-09-30T02:15:38.483Z,23.5
2022-09-30T02:20:32.030Z,23.5
2022-09-30T02:25:33.787Z,23.5
2022-09-30T02:30:31.927Z,23.5
2022-09-30T02:35:35.035Z,23.5
2022-09-30T02:40:36.422Z,23.4
2022-09-30T02:45:38.348Z,23.5
2022-09-30T02:50:34.141Z,23.4
2022-09-30T02:55:35.340Z,23.4
2022-09-30T03:00:30.411Z,23.4
2022-09-30T03:05:30.449Z,23.4
2022-09-30T03:10:31.929Z,23.4
2022-09-30T03:15:44.609Z,23.4
2022-09-30T03:20:40.353Z,23.4
2022-09-30T03:25:42.439Z,23.4
2022-09-30T03:30:40.168Z,23.4
2022-09-30T03:35:42.085Z,23.4
2022-09-30T03:40:40.084Z,23.4
2022-09-30T03:45:38.407Z,23.4
2022-09-30T03:50:35.998Z,23.4
2022-09-30T03:55:32.964Z,23.4
2022-09-30T04:00:33.460Z,23.3
2022-09-30T04:05:33.667Z,23.4
2022-09-30T04:10:33.144Z,23.4
2022-09-30T04:15:32.955Z,23.3
2022-09-30T04:20:32.905Z,23.3
2022-09-30T04:25:33.840Z,23.3
2022-09-30T04:30:36.924Z,23.3
2022-09-30T04:35:36.054Z,23.3
2022-09-30T04:40:37.019Z,23.3
2022-09-30T04:45:36.376Z,23.3
2022-09-30T04:50:36.316Z,23.3
2022-09-30T04:55:36.389Z,23.2
2022-09-30T05:00:36.916Z,23.2
2022-09-30T05:05:36.918Z,23.2
2022-09-30T05:10:36.051Z,23.2
2022-09-30T05:15:36.515Z,23.2
2022-09-30T05:20:36.613Z,23.2
2022-09-30T05:25:36.221Z,23.2
2022-09-30T05:30:36.760Z,23.2
2022-09-30T05:35:37.999Z,23.2
2022-09-30T05:40:38.816Z,23.2
2022-09-30T05:45:38.699Z,23.2
2022-09-30T05:50:39.553Z,23.2
2022-09-30T05:55:43.783Z,23.2
2022-09-30T06:00:40.369Z,23.2
2022-09-30T06:05:40.133Z,23.2
2022-09-30T06:10:40.242Z,23.2
2022-09-30T06:15:39.244Z,23.2
2022-09-30T06:20:39.444Z,23.2
2022-09-30T06:25:38.991Z,23.2
2022-09-30T06:30:38.802Z,23.2
2022-09-30T06:35:40.108Z,23.2
2022-09-30T06:40:40.839Z,23.2
2022-09-30T06:45:41.143Z,23.2
2022-09-30T06:50:47.552Z,23.2
2022-09-30T06:55:43.106Z,23.2
2022-09-30T07:00:42.227Z,23.1
2022-09-30T07:05:42.752Z,23.1
2022-09-30T07:10:46.200Z,23.2
2022-09-30T07:15:43.127Z,23.1
2022-09-30T07:20:47.487Z,23.1
2022-09-30T07:25:51.999Z,23.2
2022-09-30T07:30:43.254Z,23.2
2022-09-30T07:35:52.506Z,23.2
2022-09-30T07:40:53.915Z,23.1
2022-09-30T07:45:47.492Z,23.2
2022-09-30T07:50:47.108Z,23.2
2022-09-30T07:55:47.287Z,23.1
2022-09-30T08:00:47.955Z,23.1
2022-09-30T08:05:49.152Z,23.1
2022-09-30T08:10:49.019Z,23.1
2022-09-30T08:15:49.893Z,23.1
2022-09-30T08:20:50.293Z,23.2
2022-09-30T08:25:49.983Z,23.2
2022-09-30T08:30:50.343Z,23.1
2022-09-30T08:35:49.924Z,23.1
2022-09-30T08:41:01.509Z,23.1
2022-09-30T08:46:02.584Z,23.2
2022-09-30T08:51:03.112Z,23.2
2022-09-30T08:55:53.549Z,23.2
2022-09-30T09:00:54.770Z,23.2
2022-09-30T09:06:00.337Z,23.2
2022-09-30T09:10:59.053Z,23.2
2022-09-30T09:16:01.743Z,23.2
2022-09-30T09:20:55.236Z,23.2
2022-09-30T09:25:52.217Z,23.2
2022-09-30T09:30:56.755Z,23.2
2022-09-30T09:36:01.574Z,23.2
2022-09-30T09:41:04.099Z,23.3
2022-09-30T09:45:59.776Z,23.4
2022-09-30T09:51:01.572Z,23.3
2022-09-30T09:55:55.637Z,23.4
2022-09-30T10:01:09.585Z,23.4
2022-09-30T10:06:04.493Z,23.4
2022-09-30T10:10:58.557Z,23.5
2022-09-30T10:15:55.394Z,23.5
2022-09-30T10:20:56.542Z,23.6
2022-09-30T10:25:59.953Z,23.6
2022-09-30T10:30:57.905Z,23.8
2022-09-30T10:35:59.704Z,24
2022-09-30T10:40:53.965Z,24.1
2022-09-30T10:46:20.788Z,24.1
2022-09-30T10:50:55.446Z,24.1
2022-09-30T10:55:53.360Z,24.1
2022-09-30T11:01:00.491Z,24.1
2022-09-30T11:05:58.135Z,24.1
2022-09-30T11:11:05.806Z,24.2
2022-09-30T11:16:04.630Z,24.2
2022-09-30T11:20:59.933Z,24.1
2022-09-30T11:26:02.120Z,24.1
2022-09-30T11:31:07.175Z,24.2
2022-09-30T11:36:01.035Z,24.3
2022-09-30T11:41:02.597Z,24.2
2022-09-30T11:46:10.039Z,23.8
2022-09-30T11:51:06.000Z,23.8
2022-09-30T11:56:08.091Z,23.4
2022-09-30T12:01:00.190Z,23.8
2022-09-30T12:06:00.729Z,23.8
2022-09-30T12:11:00.702Z,23.8
2022-09-30T12:15:58.052Z,24.1
2022-09-30T12:20:59.678Z,24.2
2022-09-30T12:25:57.375Z,24.3
2022-09-30T12:31:05.103Z,24.4
2022-09-30T12:36:28.606Z,24.1
2022-09-30T12:41:05.491Z,24.2
2022-09-30T12:46:09.719Z,24.3
2022-09-30T12:50:59.297Z,24.2
2022-09-30T12:56:03.361Z,24.3
2022-09-30T13:01:00.872Z,24.4
2022-09-30T13:06:02.626Z,24.2
2022-09-30T13:10:58.907Z,24.4
2022-09-30T13:15:58.295Z,24.6
2022-09-30T13:21:18.113Z,24.6
2022-09-30T13:25:57.487Z,24.6
2022-09-30T13:31:15.582Z,24.7
2022-09-30T13:36:05.929Z,24.7
2022-09-30T13:41:05.234Z,24.9
2022-09-30T13:46:06.925Z,24.9
2022-09-30T13:51:02.713Z,24.9
2022-09-30T13:56:03.573Z,24.9
2022-09-30T14:01:09.086Z,25
2022-09-30T14:06:09.572Z,25.1
2022-09-30T14:11:14.610Z,25.2
2022-09-30T14:16:15.275Z,25.1
2022-09-30T14:21:10.001Z,25.2
2022-09-30T14:26:09.481Z,25.1
2022-09-30T14:31:01.310Z,25.1
2022-09-30T14:36:00.778Z,25.2
2022-09-30T14:41:02.030Z,25.2
2022-09-30T14:46:04.921Z,25.2
2022-09-30T14:51:04.424Z,25.2
2022-09-30T14:56:03.304Z,25.2
2022-09-30T15:01:05.764Z,25.3
2022-09-30T15:06:00.215Z,25.2
2022-09-30T15:11:00.222Z,25.4
2022-09-30T15:16:01.010Z,25.4
2022-09-30T15:21:07.001Z,25.4
2022-09-30T15:26:01.603Z,25.4
2022-09-30T15:31:03.315Z,25.4
2022-09-30T15:36:06.639Z,25.4
2022-09-30T15:41:07.836Z,25.2
2022-09-30T15:46:36.282Z,25.2
2022-09-30T15:51:23.360Z,25.2
2022-09-30T15:56:15.868Z,25.3
2022-09-30T16:01:16.376Z,25.2
2022-09-30T16:06:08.351Z,25.1
2022-09-30T16:11:08.450Z,25
2022-09-30T16:16:17.683Z,24.9
2022-09-30T16:21:05.103Z,24.3
2022-09-30T16:26:18.098Z,24.6
2022-09-30T16:31:06.324Z,24.7
2022-09-30T16:36:06.853Z,24.8
2022-09-30T16:41:05.183Z,24.8
2022-09-30T16:46:07.708Z,24.9
2022-09-30T16:51:10.420Z,24.9
2022-09-30T16:56:12.297Z,24.9
2022-09-30T17:01:05.369Z,24.9
2022-09-30T17:06:05.883Z,24.8
2022-09-30T17:11:06.975Z,24.6
2022-09-30T17:16:07.475Z,24.4
2022-09-30T17:21:07.696Z,24.6
2022-09-30T17:26:08.094Z,24.5
2022-09-30T17:31:08.804Z,24.4
2022-09-30T17:36:11.074Z,24.4
2022-09-30T17:41:12.953Z,24.2
2022-09-30T17:46:10.873Z,24.2
2022-09-30T17:51:10.514Z,24.2
2022-09-30T17:56:15.178Z,24.1
2022-09-30T18:01:10.383Z,24.2
2022-09-30T18:06:10.569Z,23.9
2022-09-30T18:11:10.430Z,24.3
2022-09-30T18:16:10.551Z,24.4
2022-09-30T18:21:11.156Z,24.5
2022-09-30T18:26:11.138Z,24.4
2022-09-30T18:31:11.415Z,24.4
2022-09-30T18:36:12.036Z,24.4
2022-09-30T18:46:01.228Z,23.7
2022-09-30T18:51:01.749Z,23.4
2022-09-30T18:56:02.247Z,23.1
2022-09-30T19:01:02.213Z,23.1
2022-09-30T19:06:06.542Z,23
2022-09-30T19:11:08.404Z,23.4
2022-09-30T19:16:03.066Z,23.6
2022-09-30T19:21:03.739Z,23.6
2022-09-30T19:26:03.251Z,23.6
2022-09-30T19:31:06.660Z,23.6
2022-09-30T19:36:14.491Z,23.2
2022-09-30T19:41:04.209Z,23.4
2022-09-30T19:46:06.012Z,23.8
2022-09-30T19:51:06.757Z,23.9
2022-09-30T19:56:06.590Z,24.1
2022-09-30T20:01:05.691Z,24.1
2022-09-30T20:06:06.171Z,24.1
2022-09-30T20:11:06.476Z,24.2
2022-09-30T20:16:07.283Z,24.1
2022-09-30T20:21:08.126Z,23.6
2022-09-30T20:26:04.714Z,23.8
2022-09-30T20:31:06.337Z,23.9
2022-09-30T20:36:07.305Z,24.1
2022-09-30T20:41:06.045Z,24.1
2022-09-30T20:46:08.582Z,24.1
2022-09-30T20:51:09.608Z,22.4
2022-09-30T20:56:11.761Z,21.8
2022-09-30T21:01:11.341Z,21.4
2022-09-30T21:06:09.513Z,21.2
2022-09-30T21:11:09.744Z,21
2022-09-30T21:16:11.482Z,21.8
2022-09-30T21:21:11.861Z,22.6
2022-09-30T21:26:12.251Z,22.9
2022-09-30T21:31:15.507Z,23.2
2022-09-30T21:36:11.041Z,23.4
2022-09-30T21:41:11.371Z,23.6
2022-09-30T21:46:13.721Z,23.7
2022-09-30T21:51:12.417Z,23.8
2022-09-30T21:56:12.283Z,23.8
2022-09-30T22:01:12.450Z,23.9
2022-09-30T22:06:12.638Z,23.9
2022-09-30T22:11:14.944Z,23.9
2022-09-30T22:16:13.575Z,23.9
2022-09-30T22:21:13.850Z,23.9
2022-09-30T22:26:14.726Z,24
2022-09-30T22:31:16.672Z,24
2022-09-30T22:36:13.276Z,24
2022-09-30T22:41:15.166Z,24
2022-09-30T22:46:13.229Z,24
2022-09-30T22:51:15.011Z,24
2022-09-30T22:56:13.092Z,24
2022-09-30T23:01:13.407Z,24
2022-09-30T23:06:13.306Z,24.1
2022-09-30T23:11:15.393Z,24.1
2022-09-30T23:16:15.495Z,24
2022-09-30T23:21:15.842Z,24.1
2022-09-30T23:26:15.825Z,24.1
2022-09-30T23:31:15.541Z,24.1
2022-09-30T23:36:16.707Z,24
2022-09-30T23:41:14.667Z,24
2022-09-30T23:46:16.662Z,24.1
2022-09-30T23:51:15.863Z,24.1
2022-09-30T23:56:17.832Z,24
